sensor_id;sensor_type;location;lat;lon;timestamp;P1;durP1;ratioP1;P2;durP2;ratioP2
33987;SDS011;37428;53.580;-1.666;2024-03-02T00:01:57;9.80;;;7.30;;
33987;SDS011;37428;53.580;-1.666;2024-03-02T00:04:59;14.70;;;8.68;;
33987;SDS011;37428;53.580;-1.666;2024-03-02T00:08:03;12.65;;;8.85;;
33987;SDS011;37428;53.580;-1.666;2024-03-02T00:11:08;11.07;;;8.40;;
33987;SDS011;37428;53.580;-1.666;2024-03-02T00:14:12;12.65;;;8.45;;
33987;SDS011;37428;53.580;-1.666;2024-03-02T00:17:16;14.55;;;11.30;;
33987;SDS011;37428;53.580;-1.666;2024-03-02T00:20:26;18.05;;;11.98;;
33987;SDS011;37428;53.580;-1.666;2024-03-02T00:23:30;20.30;;;14.48;;
33987;SDS011;37428;53.580;-1.666;2024-03-02T00:26:35;16.92;;;12.80;;
33987;SDS011;37428;53.580;-1.666;2024-03-02T00:29:37;20.23;;;13.63;;
33987;SDS011;37428;53.580;-1.666;2024-03-02T00:32:39;20.35;;;14.82;;
33987;SDS011;37428;53.580;-1.666;2024-03-02T00:35:44;15.88;;;14.23;;
33987;SDS011;37428;53.580;-1.666;2024-03-02T00:38:48;19.45;;;14.07;;
33987;SDS011;37428;53.580;-1.666;2024-03-02T00:41:51;17.75;;;15.48;;
33987;SDS011;37428;53.580;-1.666;2024-03-02T00:44:53;25.55;;;16.38;;
33987;SDS011;37428;53.580;-1.666;2024-03-02T00:47:55;17.90;;;15.35;;
33987;SDS011;37428;53.580;-1.666;2024-03-02T00:50:57;18.83;;;15.05;;
33987;SDS011;37428;53.580;-1.666;2024-03-02T00:54:01;19.73;;;13.73;;
33987;SDS011;37428;53.580;-1.666;2024-03-02T00:57:04;16.13;;;13.52;;
33987;SDS011;37428;53.580;-1.666;2024-03-02T01:00:07;17.30;;;14.20;;
33987;SDS011;37428;53.580;-1.666;2024-03-02T01:03:12;15.98;;;13.18;;
33987;SDS011;37428;53.580;-1.666;2024-03-02T01:06:14;23.08;;;13.57;;
33987;SDS011;37428;53.580;-1.666;2024-03-02T01:09:18;14.40;;;12.77;;
33987;SDS011;37428;53.580;-1.666;2024-03-02T01:12:20;17.70;;;13.75;;
33987;SDS011;37428;53.580;-1.666;2024-03-02T01:15:23;18.02;;;12.65;;
33987;SDS011;37428;53.580;-1.666;2024-03-02T01:18:25;16.88;;;14.45;;
33987;SDS011;37428;53.580;-1.666;2024-03-02T01:21:27;17.98;;;14.45;;
33987;SDS011;37428;53.580;-1.666;2024-03-02T01:24:30;19.60;;;14.02;;
33987;SDS011;37428;53.580;-1.666;2024-03-02T01:27:33;17.67;;;13.50;;
33987;SDS011;37428;53.580;-1.666;2024-03-02T01:30:35;18.85;;;13.93;;
33987;SDS011;37428;53.580;-1.666;2024-03-02T01:36:39;19.80;;;13.15;;
33987;SDS011;37428;53.580;-1.666;2024-03-02T01:39:43;15.77;;;13.55;;
33987;SDS011;37428;53.580;-1.666;2024-03-02T01:42:45;17.33;;;12.73;;
33987;SDS011;37428;53.580;-1.666;2024-03-02T01:48:49;22.38;;;13.35;;
33987;SDS011;37428;53.580;-1.666;2024-03-02T01:51:51;20.27;;;14.77;;
33987;SDS011;37428;53.580;-1.666;2024-03-02T01:54:55;19.65;;;13.73;;
33987;SDS011;37428;53.580;-1.666;2024-03-02T01:57:57;17.10;;;14.65;;
33987;SDS011;37428;53.580;-1.666;2024-03-02T02:00:59;23.25;;;14.98;;
33987;SDS011;37428;53.580;-1.666;2024-03-02T02:04:01;18.80;;;14.52;;
33987;SDS011;37428;53.580;-1.666;2024-03-02T02:07:03;21.27;;;15.57;;
33987;SDS011;37428;53.580;-1.666;2024-03-02T02:10:08;20.13;;;14.98;;
33987;SDS011;37428;53.580;-1.666;2024-03-02T02:13:11;18.52;;;13.93;;
33987;SDS011;37428;53.580;-1.666;2024-03-02T02:16:13;17.05;;;15.25;;
33987;SDS011;37428;53.580;-1.666;2024-03-02T02:19:15;20.88;;;15.38;;
33987;SDS011;37428;53.580;-1.666;2024-03-02T02:22:19;18.00;;;15.80;;
33987;SDS011;37428;53.580;-1.666;2024-03-02T02:25:21;17.08;;;14.32;;
33987;SDS011;37428;53.580;-1.666;2024-03-02T02:28:23;18.75;;;13.80;;
33987;SDS011;37428;53.580;-1.666;2024-03-02T02:31:25;21.42;;;15.90;;
33987;SDS011;37428;53.580;-1.666;2024-03-02T02:34:27;23.13;;;15.65;;
33987;SDS011;37428;53.580;-1.666;2024-03-02T02:37:30;24.20;;;14.73;;
33987;SDS011;37428;53.580;-1.666;2024-03-02T02:40:33;18.60;;;14.13;;
33987;SDS011;37428;53.580;-1.666;2024-03-02T02:43:35;19.65;;;15.27;;
33987;SDS011;37428;53.580;-1.666;2024-03-02T02:46:37;19.65;;;15.10;;
33987;SDS011;37428;53.580;-1.666;2024-03-02T02:49:39;26.02;;;16.65;;
33987;SDS011;37428;53.580;-1.666;2024-03-02T02:52:43;23.90;;;14.60;;
33987;SDS011;37428;53.580;-1.666;2024-03-02T02:55:45;19.98;;;14.93;;
33987;SDS011;37428;53.580;-1.666;2024-03-02T02:58:47;20.50;;;16.67;;
33987;SDS011;37428;53.580;-1.666;2024-03-02T03:01:51;24.30;;;16.10;;
33987;SDS011;37428;53.580;-1.666;2024-03-02T03:04:53;22.20;;;16.05;;
33987;SDS011;37428;53.580;-1.666;2024-03-02T03:07:58;25.85;;;18.90;;
33987;SDS011;37428;53.580;-1.666;2024-03-02T03:11:00;24.00;;;18.73;;
33987;SDS011;37428;53.580;-1.666;2024-03-02T03:14:03;27.67;;;20.63;;
33987;SDS011;37428;53.580;-1.666;2024-03-02T03:17:05;29.83;;;19.45;;
33987;SDS011;37428;53.580;-1.666;2024-03-02T03:20:08;33.80;;;20.90;;
33987;SDS011;37428;53.580;-1.666;2024-03-02T03:26:16;26.60;;;20.08;;
33987;SDS011;37428;53.580;-1.666;2024-03-02T03:29:18;43.30;;;25.52;;
33987;SDS011;37428;53.580;-1.666;2024-03-02T03:32:20;61.40;;;31.35;;
33987;SDS011;37428;53.580;-1.666;2024-03-02T03:38:26;45.58;;;27.55;;
33987;SDS011;37428;53.580;-1.666;2024-03-02T03:41:28;32.08;;;22.65;;
33987;SDS011;37428;53.580;-1.666;2024-03-02T03:44:30;26.95;;;20.90;;
33987;SDS011;37428;53.580;-1.666;2024-03-02T03:47:32;32.00;;;22.27;;
33987;SDS011;37428;53.580;-1.666;2024-03-02T03:53:39;39.55;;;22.08;;
33987;SDS011;37428;53.580;-1.666;2024-03-02T03:56:41;46.28;;;26.52;;
33987;SDS011;37428;53.580;-1.666;2024-03-02T03:59:43;34.55;;;24.33;;
33987;SDS011;37428;53.580;-1.666;2024-03-02T04:05:48;71.67;;;33.07;;
33987;SDS011;37428;53.580;-1.666;2024-03-02T04:08:51;36.15;;;24.35;;
33987;SDS011;37428;53.580;-1.666;2024-03-02T04:11:53;84.85;;;35.40;;
33987;SDS011;37428;53.580;-1.666;2024-03-02T04:14:56;74.78;;;33.92;;
33987;SDS011;37428;53.580;-1.666;2024-03-02T04:17:58;58.95;;;29.33;;
33987;SDS011;37428;53.580;-1.666;2024-03-02T04:21:00;34.10;;;21.85;;
33987;SDS011;37428;53.580;-1.666;2024-03-02T04:24:04;36.38;;;23.17;;
33987;SDS011;37428;53.580;-1.666;2024-03-02T04:27:06;33.83;;;22.25;;
33987;SDS011;37428;53.580;-1.666;2024-03-02T04:30:09;142.40;;;33.97;;
33987;SDS011;37428;53.580;-1.666;2024-03-02T04:33:11;37.85;;;22.92;;
33987;SDS011;37428;53.580;-1.666;2024-03-02T04:36:13;36.78;;;23.83;;
33987;SDS011;37428;53.580;-1.666;2024-03-02T04:39:17;36.47;;;24.50;;
33987;SDS011;37428;53.580;-1.666;2024-03-02T04:42:19;40.33;;;25.88;;
33987;SDS011;37428;53.580;-1.666;2024-03-02T04:45:23;297.65;;;47.55;;
33987;SDS011;37428;53.580;-1.666;2024-03-02T04:48:25;38.83;;;25.58;;
33987;SDS011;37428;53.580;-1.666;2024-03-02T04:51:27;218.90;;;39.10;;
33987;SDS011;37428;53.580;-1.666;2024-03-02T04:54:31;46.75;;;27.95;;
33987;SDS011;37428;53.580;-1.666;2024-03-02T04:57:53;147.15;;;30.77;;
33987;SDS011;37428;53.580;-1.666;2024-03-02T05:00:56;159.80;;;35.17;;
33987;SDS011;37428;53.580;-1.666;2024-03-02T05:03:59;36.00;;;23.65;;
33987;SDS011;37428;53.580;-1.666;2024-03-02T05:07:01;203.88;;;36.35;;
33987;SDS011;37428;53.580;-1.666;2024-03-02T05:10:05;40.92;;;24.70;;
33987;SDS011;37428;53.580;-1.666;2024-03-02T05:13:07;53.38;;;25.02;;
33987;SDS011;37428;53.580;-1.666;2024-03-02T05:16:09;40.38;;;24.08;;
33987;SDS011;37428;53.580;-1.666;2024-03-02T05:19:12;61.63;;;24.58;;
33987;SDS011;37428;53.580;-1.666;2024-03-02T05:22:14;40.58;;;24.10;;
33987;SDS011;37428;53.580;-1.666;2024-03-02T05:25:18;34.67;;;24.38;;
33987;SDS011;37428;53.580;-1.666;2024-03-02T05:28:20;39.47;;;25.27;;
33987;SDS011;37428;53.580;-1.666;2024-03-02T05:31:22;321.35;;;41.03;;
33987;SDS011;37428;53.580;-1.666;2024-03-02T05:34:24;47.80;;;25.58;;
33987;SDS011;37428;53.580;-1.666;2024-03-02T05:37:26;36.00;;;24.08;;
33987;SDS011;37428;53.580;-1.666;2024-03-02T05:40:30;67.07;;;24.70;;
33987;SDS011;37428;53.580;-1.666;2024-03-02T05:43:32;142.98;;;30.27;;
33987;SDS011;37428;53.580;-1.666;2024-03-02T05:46:34;37.85;;;24.25;;
33987;SDS011;37428;53.580;-1.666;2024-03-02T05:49:36;203.30;;;32.08;;
33987;SDS011;37428;53.580;-1.666;2024-03-02T05:52:38;421.73;;;37.72;;
33987;SDS011;37428;53.580;-1.666;2024-03-02T05:55:42;136.05;;;25.75;;
33987;SDS011;37428;53.580;-1.666;2024-03-02T05:58:45;80.75;;;24.92;;
33987;SDS011;37428;53.580;-1.666;2024-03-02T06:01:57;483.00;;;50.75;;
33987;SDS011;37428;53.580;-1.666;2024-03-02T06:05:00;426.52;;;42.08;;
33987;SDS011;37428;53.580;-1.666;2024-03-02T06:08:02;533.13;;;58.15;;
33987;SDS011;37428;53.580;-1.666;2024-03-02T06:11:06;844.85;;;72.20;;
33987;SDS011;37428;53.580;-1.666;2024-03-02T06:14:08;536.05;;;52.42;;
33987;SDS011;37428;53.580;-1.666;2024-03-02T06:17:10;485.33;;;48.10;;
33987;SDS011;37428;53.580;-1.666;2024-03-02T06:20:12;562.38;;;54.33;;
33987;SDS011;37428;53.580;-1.666;2024-03-02T06:23:14;149.00;;;33.45;;
33987;SDS011;37428;53.580;-1.666;2024-03-02T06:26:18;290.40;;;37.70;;
33987;SDS011;37428;53.580;-1.666;2024-03-02T06:29:21;358.48;;;33.08;;
33987;SDS011;37428;53.580;-1.666;2024-03-02T06:32:23;457.55;;;43.58;;
33987;SDS011;37428;53.580;-1.666;2024-03-02T06:35:25;127.03;;;29.80;;
33987;SDS011;37428;53.580;-1.666;2024-03-02T06:38:27;193.93;;;30.80;;
33987;SDS011;37428;53.580;-1.666;2024-03-02T06:41:31;101.85;;;27.45;;
33987;SDS011;37428;53.580;-1.666;2024-03-02T06:44:33;81.20;;;28.45;;
33987;SDS011;37428;53.580;-1.666;2024-03-02T06:47:35;132.75;;;27.65;;
33987;SDS011;37428;53.580;-1.666;2024-03-02T06:50:37;520.03;;;51.42;;
33987;SDS011;37428;53.580;-1.666;2024-03-02T06:53:40;56.13;;;24.08;;
33987;SDS011;37428;53.580;-1.666;2024-03-02T06:56:43;279.05;;;34.92;;
33987;SDS011;37428;53.580;-1.666;2024-03-02T06:59:45;444.55;;;44.08;;
33987;SDS011;37428;53.580;-1.666;2024-03-02T07:02:48;161.00;;;32.80;;
33987;SDS011;37428;53.580;-1.666;2024-03-02T07:05:50;97.82;;;29.63;;
33987;SDS011;37428;53.580;-1.666;2024-03-02T07:08:53;368.77;;;41.38;;
33987;SDS011;37428;53.580;-1.666;2024-03-02T07:11:56;295.33;;;32.95;;
33987;SDS011;37428;53.580;-1.666;2024-03-02T07:14:58;172.13;;;28.60;;
33987;SDS011;37428;53.580;-1.666;2024-03-02T07:18:25;152.68;;;31.75;;
33987;SDS011;37428;53.580;-1.666;2024-03-02T07:21:27;130.48;;;29.98;;
33987;SDS011;37428;53.580;-1.666;2024-03-02T07:24:29;294.48;;;35.15;;
33987;SDS011;37428;53.580;-1.666;2024-03-02T07:27:32;256.92;;;31.95;;
33987;SDS011;37428;53.580;-1.666;2024-03-02T07:30:35;59.67;;;29.90;;
33987;SDS011;37428;53.580;-1.666;2024-03-02T07:33:38;79.70;;;29.20;;
33987;SDS011;37428;53.580;-1.666;2024-03-02T07:36:40;468.92;;;43.13;;
33987;SDS011;37428;53.580;-1.666;2024-03-02T07:39:43;210.75;;;31.15;;
33987;SDS011;37428;53.580;-1.666;2024-03-02T07:42:47;287.70;;;33.33;;
33987;SDS011;37428;53.580;-1.666;2024-03-02T07:45:49;286.55;;;34.55;;
33987;SDS011;37428;53.580;-1.666;2024-03-02T07:48:51;69.60;;;24.48;;
33987;SDS011;37428;53.580;-1.666;2024-03-02T07:51:54;80.05;;;23.70;;
33987;SDS011;37428;53.580;-1.666;2024-03-02T07:54:56;287.00;;;34.55;;
33987;SDS011;37428;53.580;-1.666;2024-03-02T07:57:59;92.55;;;27.38;;
33987;SDS011;37428;53.580;-1.666;2024-03-02T08:01:02;127.95;;;24.23;;
33987;SDS011;37428;53.580;-1.666;2024-03-02T08:04:05;493.73;;;49.33;;
33987;SDS011;37428;53.580;-1.666;2024-03-02T08:07:07;358.35;;;39.85;;
33987;SDS011;37428;53.580;-1.666;2024-03-02T08:10:10;104.40;;;29.50;;
33987;SDS011;37428;53.580;-1.666;2024-03-02T08:13:13;122.97;;;33.10;;
33987;SDS011;37428;53.580;-1.666;2024-03-02T08:16:16;118.65;;;31.70;;
33987;SDS011;37428;53.580;-1.666;2024-03-02T08:19:19;80.40;;;29.65;;
33987;SDS011;37428;53.580;-1.666;2024-03-02T08:22:22;46.92;;;26.83;;
33987;SDS011;37428;53.580;-1.666;2024-03-02T08:25:25;33.55;;;22.52;;
33987;SDS011;37428;53.580;-1.666;2024-03-02T08:28:29;35.47;;;18.25;;
33987;SDS011;37428;53.580;-1.666;2024-03-02T08:31:31;43.85;;;24.92;;
33987;SDS011;37428;53.580;-1.666;2024-03-02T08:34:33;41.38;;;22.25;;
33987;SDS011;37428;53.580;-1.666;2024-03-02T08:37:36;33.67;;;18.38;;
33987;SDS011;37428;53.580;-1.666;2024-03-02T08:40:40;31.30;;;20.75;;
33987;SDS011;37428;53.580;-1.666;2024-03-02T08:43:44;30.23;;;18.50;;
33987;SDS011;37428;53.580;-1.666;2024-03-02T08:46:46;26.83;;;16.70;;
33987;SDS011;37428;53.580;-1.666;2024-03-02T08:49:48;22.77;;;16.67;;
33987;SDS011;37428;53.580;-1.666;2024-03-02T08:52:50;25.58;;;18.02;;
33987;SDS011;37428;53.580;-1.666;2024-03-02T08:55:53;24.27;;;16.05;;
33987;SDS011;37428;53.580;-1.666;2024-03-02T09:01:58;21.52;;;15.45;;
33987;SDS011;37428;53.580;-1.666;2024-03-02T09:05:01;33.88;;;21.00;;
33987;SDS011;37428;53.580;-1.666;2024-03-02T09:08:03;35.80;;;18.98;;
33987;SDS011;37428;53.580;-1.666;2024-03-02T09:11:06;23.25;;;17.35;;
33987;SDS011;37428;53.580;-1.666;2024-03-02T09:14:10;30.77;;;15.43;;
33987;SDS011;37428;53.580;-1.666;2024-03-02T09:17:13;25.15;;;16.63;;
33987;SDS011;37428;53.580;-1.666;2024-03-02T09:20:15;31.95;;;18.23;;
33987;SDS011;37428;53.580;-1.666;2024-03-02T09:23:18;20.33;;;15.20;;
33987;SDS011;37428;53.580;-1.666;2024-03-02T09:26:20;25.02;;;18.40;;
33987;SDS011;37428;53.580;-1.666;2024-03-02T09:29:26;29.00;;;17.73;;
33987;SDS011;37428;53.580;-1.666;2024-03-02T09:32:28;25.30;;;16.35;;
33987;SDS011;37428;53.580;-1.666;2024-03-02T09:38:33;24.60;;;17.17;;
33987;SDS011;37428;53.580;-1.666;2024-03-02T09:41:35;21.52;;;15.60;;
33987;SDS011;37428;53.580;-1.666;2024-03-02T09:44:39;29.23;;;19.45;;
33987;SDS011;37428;53.580;-1.666;2024-03-02T09:47:42;34.85;;;19.42;;
33987;SDS011;37428;53.580;-1.666;2024-03-02T09:50:45;28.33;;;19.35;;
33987;SDS011;37428;53.580;-1.666;2024-03-02T09:53:48;39.42;;;19.63;;
33987;SDS011;37428;53.580;-1.666;2024-03-02T09:56:50;69.75;;;25.88;;
33987;SDS011;37428;53.580;-1.666;2024-03-02T09:59:53;31.67;;;21.92;;
33987;SDS011;37428;53.580;-1.666;2024-03-02T10:02:55;31.30;;;22.63;;
33987;SDS011;37428;53.580;-1.666;2024-03-02T10:09:26;43.92;;;25.10;;
33987;SDS011;37428;53.580;-1.666;2024-03-02T10:12:29;37.25;;;23.67;;
33987;SDS011;37428;53.580;-1.666;2024-03-02T10:15:32;51.45;;;26.10;;
33987;SDS011;37428;53.580;-1.666;2024-03-02T10:18:35;40.50;;;24.00;;
33987;SDS011;37428;53.580;-1.666;2024-03-02T10:21:39;33.08;;;20.10;;
33987;SDS011;37428;53.580;-1.666;2024-03-02T10:24:42;40.17;;;18.65;;
33987;SDS011;37428;53.580;-1.666;2024-03-02T10:27:45;32.55;;;16.85;;
33987;SDS011;37428;53.580;-1.666;2024-03-02T10:30:53;34.67;;;17.65;;
33987;SDS011;37428;53.580;-1.666;2024-03-02T10:33:55;17.45;;;12.35;;
33987;SDS011;37428;53.580;-1.666;2024-03-02T10:36:59;20.08;;;12.60;;
33987;SDS011;37428;53.580;-1.666;2024-03-02T10:43:05;18.85;;;9.05;;
33987;SDS011;37428;53.580;-1.666;2024-03-02T10:46:10;14.68;;;8.93;;
33987;SDS011;37428;53.580;-1.666;2024-03-02T10:49:13;14.63;;;9.05;;
33987;SDS011;37428;53.580;-1.666;2024-03-02T10:52:15;6.25;;;4.25;;
33987;SDS011;37428;53.580;-1.666;2024-03-02T10:58:20;12.87;;;6.37;;
33987;SDS011;37428;53.580;-1.666;2024-03-02T11:01:24;7.53;;;3.13;;
33987;SDS011;37428;53.580;-1.666;2024-03-02T11:04:28;13.20;;;6.65;;
33987;SDS011;37428;53.580;-1.666;2024-03-02T11:07:30;14.30;;;6.38;;
33987;SDS011;37428;53.580;-1.666;2024-03-02T11:10:34;8.65;;;6.10;;
33987;SDS011;37428;53.580;-1.666;2024-03-02T11:13:38;10.77;;;7.15;;
33987;SDS011;37428;53.580;-1.666;2024-03-02T11:16:44;11.23;;;7.72;;
33987;SDS011;37428;53.580;-1.666;2024-03-02T11:19:47;13.60;;;10.80;;
33987;SDS011;37428;53.580;-1.666;2024-03-02T11:22:50;11.93;;;7.97;;
33987;SDS011;37428;53.580;-1.666;2024-03-02T11:25:52;11.63;;;7.85;;
33987;SDS011;37428;53.580;-1.666;2024-03-02T11:28:55;11.48;;;7.07;;
33987;SDS011;37428;53.580;-1.666;2024-03-02T11:32:00;13.60;;;7.78;;
33987;SDS011;37428;53.580;-1.666;2024-03-02T11:35:03;13.45;;;8.43;;
33987;SDS011;37428;53.580;-1.666;2024-03-02T11:38:07;14.63;;;8.15;;
33987;SDS011;37428;53.580;-1.666;2024-03-02T11:41:11;15.57;;;7.90;;
33987;SDS011;37428;53.580;-1.666;2024-03-02T11:44:14;15.75;;;8.88;;
33987;SDS011;37428;53.580;-1.666;2024-03-02T11:47:18;19.35;;;9.85;;
33987;SDS011;37428;53.580;-1.666;2024-03-02T11:50:28;17.77;;;8.35;;
33987;SDS011;37428;53.580;-1.666;2024-03-02T11:53:31;18.65;;;8.13;;
33987;SDS011;37428;53.580;-1.666;2024-03-02T11:56:34;12.77;;;9.00;;
33987;SDS011;37428;53.580;-1.666;2024-03-02T11:59:37;15.00;;;10.70;;
33987;SDS011;37428;53.580;-1.666;2024-03-02T12:02:40;20.10;;;11.05;;
33987;SDS011;37428;53.580;-1.666;2024-03-02T12:05:48;20.83;;;9.50;;
33987;SDS011;37428;53.580;-1.666;2024-03-02T12:08:52;16.02;;;9.02;;
33987;SDS011;37428;53.580;-1.666;2024-03-02T12:12:01;23.08;;;9.23;;
33987;SDS011;37428;53.580;-1.666;2024-03-02T12:15:05;13.55;;;7.10;;
33987;SDS011;37428;53.580;-1.666;2024-03-02T12:18:09;14.93;;;7.70;;
33987;SDS011;37428;53.580;-1.666;2024-03-02T12:21:11;18.40;;;8.20;;
33987;SDS011;37428;53.580;-1.666;2024-03-02T12:24:13;25.95;;;9.25;;
33987;SDS011;37428;53.580;-1.666;2024-03-02T12:27:16;11.10;;;5.10;;
33987;SDS011;37428;53.580;-1.666;2024-03-02T12:30:18;16.48;;;9.95;;
33987;SDS011;37428;53.580;-1.666;2024-03-02T12:36:24;23.98;;;8.85;;
33987;SDS011;37428;53.580;-1.666;2024-03-02T12:39:26;18.92;;;7.72;;
33987;SDS011;37428;53.580;-1.666;2024-03-02T12:42:30;22.60;;;8.73;;
33987;SDS011;37428;53.580;-1.666;2024-03-02T12:45:32;23.92;;;10.10;;
33987;SDS011;37428;53.580;-1.666;2024-03-02T12:48:36;18.52;;;6.32;;
33987;SDS011;37428;53.580;-1.666;2024-03-02T12:51:41;22.75;;;7.13;;
33987;SDS011;37428;53.580;-1.666;2024-03-02T12:54:45;14.63;;;5.65;;
33987;SDS011;37428;53.580;-1.666;2024-03-02T12:57:47;20.42;;;6.50;;
33987;SDS011;37428;53.580;-1.666;2024-03-02T13:01:04;12.48;;;4.63;;
33987;SDS011;37428;53.580;-1.666;2024-03-02T13:04:09;10.48;;;3.63;;
33987;SDS011;37428;53.580;-1.666;2024-03-02T13:07:11;16.15;;;4.22;;
33987;SDS011;37428;53.580;-1.666;2024-03-02T13:10:14;15.48;;;3.67;;
33987;SDS011;37428;53.580;-1.666;2024-03-02T13:13:16;11.75;;;3.55;;
33987;SDS011;37428;53.580;-1.666;2024-03-02T13:16:18;9.52;;;2.78;;
33987;SDS011;37428;53.580;-1.666;2024-03-02T13:19:22;7.35;;;1.73;;
33987;SDS011;37428;53.580;-1.666;2024-03-02T13:22:25;2.58;;;1.13;;
33987;SDS011;37428;53.580;-1.666;2024-03-02T13:25:28;5.15;;;2.15;;
33987;SDS011;37428;53.580;-1.666;2024-03-02T13:28:31;3.30;;;1.25;;
33987;SDS011;37428;53.580;-1.666;2024-03-02T13:31:33;2.78;;;1.33;;
33987;SDS011;37428;53.580;-1.666;2024-03-02T13:34:37;5.95;;;1.88;;
33987;SDS011;37428;53.580;-1.666;2024-03-02T13:37:39;2.65;;;1.10;;
33987;SDS011;37428;53.580;-1.666;2024-03-02T13:40:41;9.07;;;3.85;;
33987;SDS011;37428;53.580;-1.666;2024-03-02T13:43:43;8.85;;;3.70;;
33987;SDS011;37428;53.580;-1.666;2024-03-02T13:46:45;2.55;;;2.03;;
33987;SDS011;37428;53.580;-1.666;2024-03-02T13:49:50;6.50;;;3.58;;
33987;SDS011;37428;53.580;-1.666;2024-03-02T13:52:52;9.52;;;3.38;;
33987;SDS011;37428;53.580;-1.666;2024-03-02T13:55:54;4.80;;;2.50;;
33987;SDS011;37428;53.580;-1.666;2024-03-02T13:58:56;5.00;;;1.90;;
33987;SDS011;37428;53.580;-1.666;2024-03-02T14:01:58;8.20;;;3.28;;
33987;SDS011;37428;53.580;-1.666;2024-03-02T14:05:02;5.95;;;2.53;;
33987;SDS011;37428;53.580;-1.666;2024-03-02T14:08:05;4.93;;;2.15;;
33987;SDS011;37428;53.580;-1.666;2024-03-02T14:11:07;7.80;;;2.47;;
33987;SDS011;37428;53.580;-1.666;2024-03-02T14:14:11;6.15;;;2.03;;
33987;SDS011;37428;53.580;-1.666;2024-03-02T14:17:13;8.00;;;2.55;;
33987;SDS011;37428;53.580;-1.666;2024-03-02T14:20:17;4.72;;;2.00;;
33987;SDS011;37428;53.580;-1.666;2024-03-02T14:23:22;2.17;;;1.50;;
33987;SDS011;37428;53.580;-1.666;2024-03-02T14:26:26;13.20;;;6.10;;
33987;SDS011;37428;53.580;-1.666;2024-03-02T14:29:28;6.50;;;2.28;;
33987;SDS011;37428;53.580;-1.666;2024-03-02T14:32:30;3.47;;;1.30;;
33987;SDS011;37428;53.580;-1.666;2024-03-02T14:35:34;2.33;;;1.30;;
33987;SDS011;37428;53.580;-1.666;2024-03-02T14:38:36;4.72;;;2.08;;
33987;SDS011;37428;53.580;-1.666;2024-03-02T14:41:38;2.72;;;1.70;;
33987;SDS011;37428;53.580;-1.666;2024-03-02T14:44:41;9.27;;;2.20;;
33987;SDS011;37428;53.580;-1.666;2024-03-02T14:47:43;2.10;;;1.00;;
33987;SDS011;37428;53.580;-1.666;2024-03-02T14:50:47;4.25;;;1.50;;
33987;SDS011;37428;53.580;-1.666;2024-03-02T14:53:49;2.58;;;1.20;;
33987;SDS011;37428;53.580;-1.666;2024-03-02T14:56:52;1.80;;;1.33;;
33987;SDS011;37428;53.580;-1.666;2024-03-02T14:59:54;1.17;;;0.80;;
33987;SDS011;37428;53.580;-1.666;2024-03-02T15:02:56;1.00;;;0.70;;
33987;SDS011;37428;53.580;-1.666;2024-03-02T15:06:01;1.13;;;0.80;;
33987;SDS011;37428;53.580;-1.666;2024-03-02T15:09:04;2.85;;;1.70;;
33987;SDS011;37428;53.580;-1.666;2024-03-02T15:12:06;1.30;;;1.10;;
33987;SDS011;37428;53.580;-1.666;2024-03-02T15:15:12;2.60;;;1.20;;
33987;SDS011;37428;53.580;-1.666;2024-03-02T15:18:14;3.30;;;1.55;;
33987;SDS011;37428;53.580;-1.666;2024-03-02T15:21:18;1.42;;;1.10;;
33987;SDS011;37428;53.580;-1.666;2024-03-02T15:24:20;2.38;;;1.77;;
33987;SDS011;37428;53.580;-1.666;2024-03-02T15:27:22;1.45;;;1.00;;
33987;SDS011;37428;53.580;-1.666;2024-03-02T15:30:25;6.47;;;5.28;;
33987;SDS011;37428;53.580;-1.666;2024-03-02T15:33:27;1.15;;;0.60;;
33987;SDS011;37428;53.580;-1.666;2024-03-02T15:36:32;0.50;;;0.47;;
33987;SDS011;37428;53.580;-1.666;2024-03-02T15:39:35;1.38;;;0.93;;
33987;SDS011;37428;53.580;-1.666;2024-03-02T15:42:37;0.90;;;0.50;;
33987;SDS011;37428;53.580;-1.666;2024-03-02T15:45:40;1.45;;;1.08;;
33987;SDS011;37428;53.580;-1.666;2024-03-02T15:48:42;2.53;;;2.33;;
33987;SDS011;37428;53.580;-1.666;2024-03-02T15:51:45;2.03;;;1.45;;
33987;SDS011;37428;53.580;-1.666;2024-03-02T15:54:47;1.67;;;1.10;;
33987;SDS011;37428;53.580;-1.666;2024-03-02T15:57:50;2.00;;;1.00;;
33987;SDS011;37428;53.580;-1.666;2024-03-02T16:00:52;1.30;;;0.90;;
33987;SDS011;37428;53.580;-1.666;2024-03-02T16:03:54;1.35;;;0.98;;
33987;SDS011;37428;53.580;-1.666;2024-03-02T16:06:58;1.00;;;0.77;;
33987;SDS011;37428;53.580;-1.666;2024-03-02T16:10:00;4.53;;;0.98;;
33987;SDS011;37428;53.580;-1.666;2024-03-02T16:13:06;1.25;;;1.15;;
33987;SDS011;37428;53.580;-1.666;2024-03-02T16:16:08;2.17;;;0.40;;
33987;SDS011;37428;53.580;-1.666;2024-03-02T16:19:12;1.50;;;1.00;;
33987;SDS011;37428;53.580;-1.666;2024-03-02T16:22:15;0.95;;;0.60;;
33987;SDS011;37428;53.580;-1.666;2024-03-02T16:25:17;1.42;;;0.70;;
33987;SDS011;37428;53.580;-1.666;2024-03-02T16:28:19;2.20;;;1.23;;
33987;SDS011;37428;53.580;-1.666;2024-03-02T16:31:21;8.88;;;6.43;;
33987;SDS011;37428;53.580;-1.666;2024-03-02T16:34:24;4.03;;;3.63;;
33987;SDS011;37428;53.580;-1.666;2024-03-02T16:37:28;8.88;;;6.07;;
33987;SDS011;37428;53.580;-1.666;2024-03-02T16:40:30;1.85;;;1.63;;
33987;SDS011;37428;53.580;-1.666;2024-03-02T16:43:32;2.05;;;1.52;;
33987;SDS011;37428;53.580;-1.666;2024-03-02T16:46:35;8.35;;;4.85;;
33987;SDS011;37428;53.580;-1.666;2024-03-02T16:49:38;3.25;;;2.00;;
33987;SDS011;37428;53.580;-1.666;2024-03-02T16:52:41;2.00;;;1.38;;
33987;SDS011;37428;53.580;-1.666;2024-03-02T16:55:43;5.20;;;3.60;;
33987;SDS011;37428;53.580;-1.666;2024-03-02T16:58:45;5.15;;;3.65;;
33987;SDS011;37428;53.580;-1.666;2024-03-02T17:01:48;1.92;;;1.30;;
33987;SDS011;37428;53.580;-1.666;2024-03-02T17:04:50;4.70;;;3.28;;
33987;SDS011;37428;53.580;-1.666;2024-03-02T17:07:54;4.80;;;3.85;;
33987;SDS011;37428;53.580;-1.666;2024-03-02T17:10:58;3.53;;;3.22;;
33987;SDS011;37428;53.580;-1.666;2024-03-02T17:14:00;3.28;;;2.40;;
33987;SDS011;37428;53.580;-1.666;2024-03-02T17:17:03;5.25;;;2.25;;
33987;SDS011;37428;53.580;-1.666;2024-03-02T17:20:06;4.05;;;3.10;;
33987;SDS011;37428;53.580;-1.666;2024-03-02T17:23:11;4.43;;;4.03;;
33987;SDS011;37428;53.580;-1.666;2024-03-02T17:26:13;4.93;;;4.43;;
33987;SDS011;37428;53.580;-1.666;2024-03-02T17:29:15;7.03;;;6.32;;
33987;SDS011;37428;53.580;-1.666;2024-03-02T17:32:17;5.90;;;5.25;;
33987;SDS011;37428;53.580;-1.666;2024-03-02T17:35:19;74.70;;;39.65;;
33987;SDS011;37428;53.580;-1.666;2024-03-02T17:38:23;74.25;;;35.75;;
33987;SDS011;37428;53.580;-1.666;2024-03-02T17:41:25;26.63;;;13.63;;
33987;SDS011;37428;53.580;-1.666;2024-03-02T17:44:27;45.13;;;20.23;;
33987;SDS011;37428;53.580;-1.666;2024-03-02T17:47:29;84.38;;;37.53;;
33987;SDS011;37428;53.580;-1.666;2024-03-02T17:50:31;36.88;;;17.05;;
33987;SDS011;37428;53.580;-1.666;2024-03-02T17:53:35;5.90;;;4.70;;
33987;SDS011;37428;53.580;-1.666;2024-03-02T17:56:37;38.85;;;19.77;;
33987;SDS011;37428;53.580;-1.666;2024-03-02T17:59:39;21.13;;;12.82;;
33987;SDS011;37428;53.580;-1.666;2024-03-02T18:02:43;13.57;;;9.35;;
33987;SDS011;37428;53.580;-1.666;2024-03-02T18:05:45;22.15;;;19.42;;
33987;SDS011;37428;53.580;-1.666;2024-03-02T18:08:49;10.88;;;9.85;;
33987;SDS011;37428;53.580;-1.666;2024-03-02T18:11:51;3.97;;;3.67;;
33987;SDS011;37428;53.580;-1.666;2024-03-02T18:14:53;4.03;;;3.70;;
33987;SDS011;37428;53.580;-1.666;2024-03-02T18:17:55;3.58;;;3.05;;
33987;SDS011;37428;53.580;-1.666;2024-03-02T18:20:57;4.30;;;3.60;;